This is the latest recevied weather packets stored in our database for station/object AC4AG. If no packets are shown the sender has not sent any weather packets the latest 1 day(s).
| Time | Temp. | Humidity | Pressure | Rain* | Wind** | Luminosity | Snow |
|---|---|---|---|---|---|---|---|
| 1777986420 | 16.67° C | 67% | 1012.5 hPa | 0 mm | 1.34 m/s, 157° | 221 W/m² | - |
| 1777986119 | 16.67° C | 67% | 1012.3 hPa | 0 mm | 1.34 m/s, 183° | 199 W/m² | - |
| 1777985814 | 16.67° C | 68% | 1012.5 hPa | 0 mm | 0.89 m/s, 163° | 194 W/m² | - |
| 1777985512 | 16.11° C | 68% | 1012.5 hPa | 0 mm | 1.34 m/s, 162° | 178 W/m² | - |
| 1777985208 | 16.11° C | 67% | 1012.5 hPa | 0 mm | 2.68 m/s, 169° | 200 W/m² | - |
| 1777984905 | 16.11° C | 70% | 1012.5 hPa | 0 mm | 0.89 m/s, 202° | 208 W/m² | - |
| 1777984601 | 15.56° C | 69% | 1012.4 hPa | 0 mm | 2.24 m/s, 154° | 187 W/m² | - |
| 1777984298 | 15.56° C | 69% | 1012.4 hPa | 0 mm | 0.89 m/s, 177° | 161 W/m² | - |
| 1777983994 | 15.56° C | 70% | 1012.2 hPa | 0 mm | 1.34 m/s, 173° | 153 W/m² | - |
| 1777983692 | 15.56° C | 70% | 1012 hPa | 0 mm | 0.89 m/s, 160° | 136 W/m² | - |
| 1777983388 | 15° C | 71% | 1012.3 hPa | 0 mm | 0.89 m/s, 145° | 131 W/m² | - |
| 1777983085 | 15° C | 72% | 1012.1 hPa | 0 mm | 0.45 m/s, 152° | 122 W/m² | - |
| 1777982781 | 15° C | 71% | 1012.2 hPa | 0 mm | 0.45 m/s, 129° | 113 W/m² | - |
| 1777982477 | 15° C | 72% | 1012 hPa | 0 mm | 0.45 m/s, 156° | 95 W/m² | - |
| 1777982172 | 15° C | 73% | 1012.1 hPa | 0 mm | 0.45 m/s, 153° | 98 W/m² | - |
| 1777981869 | 14.44° C | 72% | 1012.2 hPa | 0 mm | 0.89 m/s, 134° | 98 W/m² | - |
| 1777981566 | 14.44° C | 74% | 1011.8 hPa | 0 mm | 0 m/s | 83 W/m² | - |
| 1777981263 | 14.44° C | 73% | 1012 hPa | 0 mm | 0 m/s | 74 W/m² | - |
| 1777980959 | 14.44° C | 72% | 1011.9 hPa | 0 mm | 0 m/s | 61 W/m² | - |
| 1777980656 | 14.44° C | 71% | 1012 hPa | 0 mm | 0 m/s | 52 W/m² | - |
| 1777980352 | 14.44° C | 71% | 1011.9 hPa | 0 mm | 0 m/s | 47 W/m² | - |
| 1777980050 | 15° C | 69% | 1011.9 hPa | 0 mm | 0.45 m/s, 159° | 42 W/m² | - |
| 1777979744 | 15° C | 68% | 1011.7 hPa | 0 mm | 0.89 m/s, 178° | 34 W/m² | - |
| 1777979440 | 15° C | 68% | 1011.7 hPa | 0 mm | 0.89 m/s, 226° | 28 W/m² | - |
| 1777979137 | 15° C | 68% | 1011.8 hPa | 0 mm | 1.79 m/s, 189° | 26 W/m² | - |
* Rain latest hour (hover to see other rain measurements)
** Current wind speed in m/s (hover to see current wind gust speed)